Terminal Aerodrome Forecast
Issued by NWS

Home | Current Version | Previous Version | Text Only | Print | Product List | Glossary On
Versions: 1 2 3 4 5 6 7 8 9 10 11 12 13 14 15 16 17
570
FTUS42 KFFC 252336
TAFRYY
TAF
KRYY 252336Z 2600/2624 VRB03KT P6SM SCT040 BKN250
     FM260400 28003KT P6SM SCT250
     FM261200 03003KT P6SM SKC
     FM261600 05004KT P6SM SCT040 BKN250 PROB30 2620/2623 P6SM TS
      BKN050CB
      AMD NOT SKED 2604/2612=

USA.gov is the U.S. government's official web portal to all federal, state and local government web resources and services.